sensor_id;sensor_type;location;lat;lon;timestamp;temperature;humidity
38380;DHT22;38377;47.418;18.882;2022-07-21T00:01:33;23.70;59.80
38380;DHT22;38377;47.418;18.882;2022-07-21T00:03:59;23.60;59.70
38380;DHT22;38377;47.418;18.882;2022-07-21T00:06:24;23.50;60.10
38380;DHT22;38377;47.418;18.882;2022-07-21T00:08:50;23.50;59.80
38380;DHT22;38377;47.418;18.882;2022-07-21T00:11:16;23.50;59.70
38380;DHT22;38377;47.418;18.882;2022-07-21T00:13:42;23.60;59.50
38380;DHT22;38377;47.418;18.882;2022-07-21T00:16:08;23.60;59.40
38380;DHT22;38377;47.418;18.882;2022-07-21T00:18:34;23.70;59.20
38380;DHT22;38377;47.418;18.882;2022-07-21T00:21:24;23.70;59.10
38380;DHT22;38377;47.418;18.882;2022-07-21T00:27:14;23.70;59.10
38380;DHT22;38377;47.418;18.882;2022-07-21T00:29:40;23.60;59.40
38380;DHT22;38377;47.418;18.882;2022-07-21T00:32:09;23.50;59.50
38380;DHT22;38377;47.418;18.882;2022-07-21T00:34:34;23.50;60.10
38380;DHT22;38377;47.418;18.882;2022-07-21T00:37:00;23.40;60.00
38380;DHT22;38377;47.418;18.882;2022-07-21T00:39:26;23.30;59.80
38380;DHT22;38377;47.418;18.882;2022-07-21T00:41:51;23.30;60.10
38380;DHT22;38377;47.418;18.882;2022-07-21T00:44:25;23.20;60.20
38380;DHT22;38377;47.418;18.882;2022-07-21T00:46:51;23.20;60.30
38380;DHT22;38377;47.418;18.882;2022-07-21T00:49:17;23.20;60.20
38380;DHT22;38377;47.418;18.882;2022-07-21T00:51:43;23.10;60.40
38380;DHT22;38377;47.418;18.882;2022-07-21T00:54:09;23.10;60.40
38380;DHT22;38377;47.418;18.882;2022-07-21T00:56:35;23.10;60.40
38380;DHT22;38377;47.418;18.882;2022-07-21T00:59:01;23.10;60.30
38380;DHT22;38377;47.418;18.882;2022-07-21T01:01:27;23.20;60.60
38380;DHT22;38377;47.418;18.882;2022-07-21T01:03:52;23.10;60.90
38380;DHT22;38377;47.418;18.882;2022-07-21T01:06:18;22.90;61.40
38380;DHT22;38377;47.418;18.882;2022-07-21T01:08:44;22.90;61.30
38380;DHT22;38377;47.418;18.882;2022-07-21T01:11:10;22.80;61.10
38380;DHT22;38377;47.418;18.882;2022-07-21T01:13:36;22.90;61.00
38380;DHT22;38377;47.418;18.882;2022-07-21T01:16:09;23.00;60.60
38380;DHT22;38377;47.418;18.882;2022-07-21T01:18:36;23.20;60.30
38380;DHT22;38377;47.418;18.882;2022-07-21T01:23:33;23.20;60.50
38380;DHT22;38377;47.418;18.882;2022-07-21T01:25:59;23.20;61.40
38380;DHT22;38377;47.418;18.882;2022-07-21T01:28:25;23.00;61.20
38380;DHT22;38377;47.418;18.882;2022-07-21T01:30:50;23.00;60.90
38380;DHT22;38377;47.418;18.882;2022-07-21T01:33:16;23.10;60.70
38380;DHT22;38377;47.418;18.882;2022-07-21T01:35:42;23.10;60.60
38380;DHT22;38377;47.418;18.882;2022-07-21T01:38:12;23.10;60.90
38380;DHT22;38377;47.418;18.882;2022-07-21T01:40:59;23.10;60.90
38380;DHT22;38377;47.418;18.882;2022-07-21T01:43:43;23.10;61.60
38380;DHT22;38377;47.418;18.882;2022-07-21T01:46:13;23.00;61.20
38380;DHT22;38377;47.418;18.882;2022-07-21T01:48:43;23.10;61.10
38380;DHT22;38377;47.418;18.882;2022-07-21T01:51:13;23.00;61.50
38380;DHT22;38377;47.418;18.882;2022-07-21T01:53:40;23.00;61.60
38380;DHT22;38377;47.418;18.882;2022-07-21T01:56:06;22.90;62.00
38380;DHT22;38377;47.418;18.882;2022-07-21T01:58:33;22.90;62.30
38380;DHT22;38377;47.418;18.882;2022-07-21T02:00:59;22.80;62.60
38380;DHT22;38377;47.418;18.882;2022-07-21T02:03:24;22.70;64.30
38380;DHT22;38377;47.418;18.882;2022-07-21T02:05:50;22.50;64.40
38380;DHT22;38377;47.418;18.882;2022-07-21T02:08:18;22.40;64.00
38380;DHT22;38377;47.418;18.882;2022-07-21T02:10:44;22.30;66.50
38380;DHT22;38377;47.418;18.882;2022-07-21T02:13:09;22.10;66.50
38380;DHT22;38377;47.418;18.882;2022-07-21T02:15:36;21.90;68.00
38380;DHT22;38377;47.418;18.882;2022-07-21T02:18:02;21.50;68.50
38380;DHT22;38377;47.418;18.882;2022-07-21T02:20:28;21.20;69.90
38380;DHT22;38377;47.418;18.882;2022-07-21T02:22:53;21.00;70.70
38380;DHT22;38377;47.418;18.882;2022-07-21T02:25:19;20.80;70.50
38380;DHT22;38377;47.418;18.882;2022-07-21T02:27:46;20.80;71.00
38380;DHT22;38377;47.418;18.882;2022-07-21T02:30:12;20.70;70.40
38380;DHT22;38377;47.418;18.882;2022-07-21T02:32:38;21.10;68.40
38380;DHT22;38377;47.418;18.882;2022-07-21T02:35:05;21.50;67.00
38380;DHT22;38377;47.418;18.882;2022-07-21T02:37:31;21.80;65.80
38380;DHT22;38377;47.418;18.882;2022-07-21T02:39:57;22.10;65.20
38380;DHT22;38377;47.418;18.882;2022-07-21T02:42:22;22.20;64.90
38380;DHT22;38377;47.418;18.882;2022-07-21T02:44:48;22.20;64.70
38380;DHT22;38377;47.418;18.882;2022-07-21T02:47:14;22.20;64.90
38380;DHT22;38377;47.418;18.882;2022-07-21T02:49:39;22.30;64.60
38380;DHT22;38377;47.418;18.882;2022-07-21T02:52:05;22.20;65.20
38380;DHT22;38377;47.418;18.882;2022-07-21T02:54:31;22.10;65.70
38380;DHT22;38377;47.418;18.882;2022-07-21T02:56:57;22.10;65.90
38380;DHT22;38377;47.418;18.882;2022-07-21T02:59:23;22.10;65.50
38380;DHT22;38377;47.418;18.882;2022-07-21T03:01:50;22.20;65.20
38380;DHT22;38377;47.418;18.882;2022-07-21T03:04:17;22.30;64.90
38380;DHT22;38377;47.418;18.882;2022-07-21T03:06:42;22.20;65.10
38380;DHT22;38377;47.418;18.882;2022-07-21T03:09:09;22.20;65.00
38380;DHT22;38377;47.418;18.882;2022-07-21T03:11:35;22.20;65.20
38380;DHT22;38377;47.418;18.882;2022-07-21T03:14:01;22.10;66.10
38380;DHT22;38377;47.418;18.882;2022-07-21T03:16:27;22.00;67.70
38380;DHT22;38377;47.418;18.882;2022-07-21T03:18:53;21.80;66.20
38380;DHT22;38377;47.418;18.882;2022-07-21T03:21:19;21.60;67.70
38380;DHT22;38377;47.418;18.882;2022-07-21T03:23:45;21.60;66.60
38380;DHT22;38377;47.418;18.882;2022-07-21T03:26:12;21.70;66.30
38380;DHT22;38377;47.418;18.882;2022-07-21T03:28:39;21.80;66.40
38380;DHT22;38377;47.418;18.882;2022-07-21T03:31:05;21.70;66.50
38380;DHT22;38377;47.418;18.882;2022-07-21T03:33:31;21.70;66.60
38380;DHT22;38377;47.418;18.882;2022-07-21T03:35:57;21.70;66.80
38380;DHT22;38377;47.418;18.882;2022-07-21T03:38:24;21.70;66.60
38380;DHT22;38377;47.418;18.882;2022-07-21T03:40:50;21.70;66.90
38380;DHT22;38377;47.418;18.882;2022-07-21T03:43:16;21.70;67.40
38380;DHT22;38377;47.418;18.882;2022-07-21T03:45:42;21.60;67.20
38380;DHT22;38377;47.418;18.882;2022-07-21T03:48:08;21.70;66.90
38380;DHT22;38377;47.418;18.882;2022-07-21T03:50:36;21.70;67.50
38380;DHT22;38377;47.418;18.882;2022-07-21T03:53:04;21.60;67.20
38380;DHT22;38377;47.418;18.882;2022-07-21T03:55:30;21.60;67.90
38380;DHT22;38377;47.418;18.882;2022-07-21T03:57:58;21.60;69.50
38380;DHT22;38377;47.418;18.882;2022-07-21T04:01:00;21.30;70.30
38380;DHT22;38377;47.418;18.882;2022-07-21T04:03:19;21.20;72.30
38380;DHT22;38377;47.418;18.882;2022-07-21T04:05:45;21.40;68.90
38380;DHT22;38377;47.418;18.882;2022-07-21T04:08:12;21.60;68.00
38380;DHT22;38377;47.418;18.882;2022-07-21T04:10:40;21.70;69.80
38380;DHT22;38377;47.418;18.882;2022-07-21T04:13:11;21.50;71.10
38380;DHT22;38377;47.418;18.882;2022-07-21T04:15:59;21.40;72.50
38380;DHT22;38377;47.418;18.882;2022-07-21T04:18:24;21.40;71.50
38380;DHT22;38377;47.418;18.882;2022-07-21T04:20:56;21.40;71.30
38380;DHT22;38377;47.418;18.882;2022-07-21T04:23:28;21.60;72.30
38380;DHT22;38377;47.418;18.882;2022-07-21T04:25:55;21.70;70.90
38380;DHT22;38377;47.418;18.882;2022-07-21T04:28:20;21.90;71.10
38380;DHT22;38377;47.418;18.882;2022-07-21T04:30:46;22.10;71.40
38380;DHT22;38377;47.418;18.882;2022-07-21T04:33:12;22.30;71.60
38380;DHT22;38377;47.418;18.882;2022-07-21T04:35:37;22.50;71.80
38380;DHT22;38377;47.418;18.882;2022-07-21T04:38:03;22.60;72.20
38380;DHT22;38377;47.418;18.882;2022-07-21T04:40:29;23.00;70.50
38380;DHT22;38377;47.418;18.882;2022-07-21T04:42:54;23.50;69.30
38380;DHT22;38377;47.418;18.882;2022-07-21T04:45:20;23.60;67.60
38380;DHT22;38377;47.418;18.882;2022-07-21T04:47:51;23.70;68.90
38380;DHT22;38377;47.418;18.882;2022-07-21T04:50:26;23.80;67.40
38380;DHT22;38377;47.418;18.882;2022-07-21T04:52:55;23.80;67.60
38380;DHT22;38377;47.418;18.882;2022-07-21T04:55:22;23.90;68.10
38380;DHT22;38377;47.418;18.882;2022-07-21T04:57:50;24.00;68.10
38380;DHT22;38377;47.418;18.882;2022-07-21T05:00:21;24.30;68.30
38380;DHT22;38377;47.418;18.882;2022-07-21T05:02:47;25.10;66.70
38380;DHT22;38377;47.418;18.882;2022-07-21T05:05:14;26.00;63.10
38380;DHT22;38377;47.418;18.882;2022-07-21T05:07:39;26.70;62.60
38380;DHT22;38377;47.418;18.882;2022-07-21T05:10:06;27.20;59.70
38380;DHT22;38377;47.418;18.882;2022-07-21T05:12:33;27.20;58.50
38380;DHT22;38377;47.418;18.882;2022-07-21T05:14:58;27.30;60.30
38380;DHT22;38377;47.418;18.882;2022-07-21T05:17:24;27.00;60.10
38380;DHT22;38377;47.418;18.882;2022-07-21T05:19:52;26.90;59.20
38380;DHT22;38377;47.418;18.882;2022-07-21T05:22:18;26.70;58.80
38380;DHT22;38377;47.418;18.882;2022-07-21T05:24:44;27.10;57.90
38380;DHT22;38377;47.418;18.882;2022-07-21T05:27:11;27.90;57.70
38380;DHT22;38377;47.418;18.882;2022-07-21T05:29:37;28.30;58.10
38380;DHT22;38377;47.418;18.882;2022-07-21T05:32:03;29.10;56.70
38380;DHT22;38377;47.418;18.882;2022-07-21T05:34:29;30.10;53.50
38380;DHT22;38377;47.418;18.882;2022-07-21T05:36:54;30.90;53.50
38380;DHT22;38377;47.418;18.882;2022-07-21T05:39:20;31.30;52.60
38380;DHT22;38377;47.418;18.882;2022-07-21T05:41:46;31.20;52.00
38380;DHT22;38377;47.418;18.882;2022-07-21T05:44:12;31.30;51.40
38380;DHT22;38377;47.418;18.882;2022-07-21T05:46:38;31.40;53.50
38380;DHT22;38377;47.418;18.882;2022-07-21T05:49:04;30.70;52.70
38380;DHT22;38377;47.418;18.882;2022-07-21T05:51:30;30.70;53.40
38380;DHT22;38377;47.418;18.882;2022-07-21T05:53:56;30.80;53.80
38380;DHT22;38377;47.418;18.882;2022-07-21T05:56:21;30.80;52.50
38380;DHT22;38377;47.418;18.882;2022-07-21T05:58:47;29.70;54.60
38380;DHT22;38377;47.418;18.882;2022-07-21T06:01:13;29.30;54.10
38380;DHT22;38377;47.418;18.882;2022-07-21T06:03:43;29.00;56.10
38380;DHT22;38377;47.418;18.882;2022-07-21T06:06:10;28.80;57.10
38380;DHT22;38377;47.418;18.882;2022-07-21T06:08:38;28.50;57.00
38380;DHT22;38377;47.418;18.882;2022-07-21T06:11:04;28.30;55.90
38380;DHT22;38377;47.418;18.882;2022-07-21T06:13:30;28.30;57.00
38380;DHT22;38377;47.418;18.882;2022-07-21T06:15:56;28.30;57.50
38380;DHT22;38377;47.418;18.882;2022-07-21T06:18:22;28.30;55.90
38380;DHT22;38377;47.418;18.882;2022-07-21T06:20:47;28.40;57.50
38380;DHT22;38377;47.418;18.882;2022-07-21T06:23:13;28.40;57.70
38380;DHT22;38377;47.418;18.882;2022-07-21T06:25:39;28.50;56.10
38380;DHT22;38377;47.418;18.882;2022-07-21T06:28:05;28.30;55.40
38380;DHT22;38377;47.418;18.882;2022-07-21T06:33:06;28.40;57.50
38380;DHT22;38377;47.418;18.882;2022-07-21T06:35:32;28.60;56.80
38380;DHT22;38377;47.418;18.882;2022-07-21T06:37:58;28.60;55.90
38380;DHT22;38377;47.418;18.882;2022-07-21T06:40:24;28.70;56.50
38380;DHT22;38377;47.418;18.882;2022-07-21T06:42:50;28.80;56.10
38380;DHT22;38377;47.418;18.882;2022-07-21T06:45:16;28.70;55.60
38380;DHT22;38377;47.418;18.882;2022-07-21T06:47:42;28.80;56.10
38380;DHT22;38377;47.418;18.882;2022-07-21T06:50:08;29.10;57.00
38380;DHT22;38377;47.418;18.882;2022-07-21T06:52:35;29.20;55.60
38380;DHT22;38377;47.418;18.882;2022-07-21T06:55:02;29.20;55.30
38380;DHT22;38377;47.418;18.882;2022-07-21T06:57:28;29.10;55.90
38380;DHT22;38377;47.418;18.882;2022-07-21T06:59:54;29.10;55.70
38380;DHT22;38377;47.418;18.882;2022-07-21T07:02:19;29.30;54.90
38380;DHT22;38377;47.418;18.882;2022-07-21T07:04:45;29.40;53.90
38380;DHT22;38377;47.418;18.882;2022-07-21T07:07:11;29.30;53.50
38380;DHT22;38377;47.418;18.882;2022-07-21T07:09:37;29.30;53.50
38380;DHT22;38377;47.418;18.882;2022-07-21T07:12:03;29.50;54.30
38380;DHT22;38377;47.418;18.882;2022-07-21T07:14:33;29.90;54.20
38380;DHT22;38377;47.418;18.882;2022-07-21T07:17:01;29.60;53.90
38380;DHT22;38377;47.418;18.882;2022-07-21T07:19:27;29.90;54.70
38380;DHT22;38377;47.418;18.882;2022-07-21T07:21:53;29.70;53.30
38380;DHT22;38377;47.418;18.882;2022-07-21T07:24:19;29.90;53.40
38380;DHT22;38377;47.418;18.882;2022-07-21T07:26:45;30.30;54.10
38380;DHT22;38377;47.418;18.882;2022-07-21T07:29:10;30.50;52.60
38380;DHT22;38377;47.418;18.882;2022-07-21T07:31:36;30.40;53.50
38380;DHT22;38377;47.418;18.882;2022-07-21T07:34:03;30.60;52.80
38380;DHT22;38377;47.418;18.882;2022-07-21T07:36:29;30.70;52.70
38380;DHT22;38377;47.418;18.882;2022-07-21T07:38:55;31.00;52.90
38380;DHT22;38377;47.418;18.882;2022-07-21T07:41:23;30.50;50.90
38380;DHT22;38377;47.418;18.882;2022-07-21T07:43:49;30.60;52.00
38380;DHT22;38377;47.418;18.882;2022-07-21T07:46:17;30.80;53.00
38380;DHT22;38377;47.418;18.882;2022-07-21T07:48:43;31.00;52.10
38380;DHT22;38377;47.418;18.882;2022-07-21T07:51:10;31.20;51.50
38380;DHT22;38377;47.418;18.882;2022-07-21T07:53:37;31.50;51.20
38380;DHT22;38377;47.418;18.882;2022-07-21T07:56:03;31.70;51.60
38380;DHT22;38377;47.418;18.882;2022-07-21T07:58:29;31.90;51.80
38380;DHT22;38377;47.418;18.882;2022-07-21T08:00:54;32.30;51.00
38380;DHT22;38377;47.418;18.882;2022-07-21T08:03:21;31.80;51.90
38380;DHT22;38377;47.418;18.882;2022-07-21T08:05:47;32.00;50.00
38380;DHT22;38377;47.418;18.882;2022-07-21T08:08:13;32.10;49.90
38380;DHT22;38377;47.418;18.882;2022-07-21T08:10:40;32.10;49.60
38380;DHT22;38377;47.418;18.882;2022-07-21T08:13:05;31.40;50.20
38380;DHT22;38377;47.418;18.882;2022-07-21T08:15:31;31.10;50.40
38380;DHT22;38377;47.418;18.882;2022-07-21T08:17:57;31.40;51.40
38380;DHT22;38377;47.418;18.882;2022-07-21T08:20:22;31.90;50.70
38380;DHT22;38377;47.418;18.882;2022-07-21T08:22:48;32.20;49.50
38380;DHT22;38377;47.418;18.882;2022-07-21T08:25:14;31.80;50.00
38380;DHT22;38377;47.418;18.882;2022-07-21T08:27:40;31.60;51.00
38380;DHT22;38377;47.418;18.882;2022-07-21T08:30:08;32.40;51.10
38380;DHT22;38377;47.418;18.882;2022-07-21T08:32:34;32.30;49.70
38380;DHT22;38377;47.418;18.882;2022-07-21T08:35:00;32.60;49.40
38380;DHT22;38377;47.418;18.882;2022-07-21T08:37:25;32.20;51.20
38380;DHT22;38377;47.418;18.882;2022-07-21T08:39:51;31.90;49.90
38380;DHT22;38377;47.418;18.882;2022-07-21T08:42:17;32.60;50.40
38380;DHT22;38377;47.418;18.882;2022-07-21T08:44:43;32.30;49.30
38380;DHT22;38377;47.418;18.882;2022-07-21T08:47:09;32.50;50.20
38380;DHT22;38377;47.418;18.882;2022-07-21T08:49:35;33.00;48.90
38380;DHT22;38377;47.418;18.882;2022-07-21T08:52:01;33.00;48.60
38380;DHT22;38377;47.418;18.882;2022-07-21T08:54:27;32.00;49.20
38380;DHT22;38377;47.418;18.882;2022-07-21T08:56:53;32.30;49.60
38380;DHT22;38377;47.418;18.882;2022-07-21T08:59:20;32.60;49.00
38380;DHT22;38377;47.418;18.882;2022-07-21T09:01:46;32.50;49.50
38380;DHT22;38377;47.418;18.882;2022-07-21T09:04:47;32.90;50.20
38380;DHT22;38377;47.418;18.882;2022-07-21T09:07:13;33.20;48.90
38380;DHT22;38377;47.418;18.882;2022-07-21T09:09:40;33.90;48.30
38380;DHT22;38377;47.418;18.882;2022-07-21T09:12:06;34.40;47.60
38380;DHT22;38377;47.418;18.882;2022-07-21T09:14:33;34.50;47.60
38380;DHT22;38377;47.418;18.882;2022-07-21T09:17:03;34.50;47.70
38380;DHT22;38377;47.418;18.882;2022-07-21T09:19:35;34.70;47.70
38380;DHT22;38377;47.418;18.882;2022-07-21T09:22:13;34.20;46.40
38380;DHT22;38377;47.418;18.882;2022-07-21T09:24:39;34.50;47.80
38380;DHT22;38377;47.418;18.882;2022-07-21T09:27:14;34.10;45.90
38380;DHT22;38377;47.418;18.882;2022-07-21T09:29:47;34.50;47.30
38380;DHT22;38377;47.418;18.882;2022-07-21T09:32:28;33.70;47.00
38380;DHT22;38377;47.418;18.882;2022-07-21T09:37:23;33.90;47.50
38380;DHT22;38377;47.418;18.882;2022-07-21T09:39:52;34.20;47.50
38380;DHT22;38377;47.418;18.882;2022-07-21T09:42:31;34.10;47.80
38380;DHT22;38377;47.418;18.882;2022-07-21T09:47:25;34.80;47.10
38380;DHT22;38377;47.418;18.882;2022-07-21T09:49:53;34.20;46.90
38380;DHT22;38377;47.418;18.882;2022-07-21T09:54:52;34.40;46.80
38380;DHT22;38377;47.418;18.882;2022-07-21T09:57:19;34.70;47.00
38380;DHT22;38377;47.418;18.882;2022-07-21T09:59:47;34.90;47.30
38380;DHT22;38377;47.418;18.882;2022-07-21T10:02:28;35.40;47.00
38380;DHT22;38377;47.418;18.882;2022-07-21T10:05:06;35.80;45.80
38380;DHT22;38377;47.418;18.882;2022-07-21T10:07:35;35.00;45.70
38380;DHT22;38377;47.418;18.882;2022-07-21T10:10:01;34.30;46.90
38380;DHT22;38377;47.418;18.882;2022-07-21T10:12:27;34.70;46.00
38380;DHT22;38377;47.418;18.882;2022-07-21T10:14:54;34.90;45.30
38380;DHT22;38377;47.418;18.882;2022-07-21T10:17:21;34.70;45.40
38380;DHT22;38377;47.418;18.882;2022-07-21T10:20:09;34.50;46.30
38380;DHT22;38377;47.418;18.882;2022-07-21T10:25:06;35.00;46.10
38380;DHT22;38377;47.418;18.882;2022-07-21T10:27:32;35.50;45.10
38380;DHT22;38377;47.418;18.882;2022-07-21T10:30:00;35.00;46.10
38380;DHT22;38377;47.418;18.882;2022-07-21T10:34:57;35.30;45.70
38380;DHT22;38377;47.418;18.882;2022-07-21T10:45:31;34.70;46.60
38380;DHT22;38377;47.418;18.882;2022-07-21T10:48:01;34.90;45.80
38380;DHT22;38377;47.418;18.882;2022-07-21T10:50:39;35.60;45.50
38380;DHT22;38377;47.418;18.882;2022-07-21T10:53:16;35.90;45.20
38380;DHT22;38377;47.418;18.882;2022-07-21T10:55:52;35.20;44.90
38380;DHT22;38377;47.418;18.882;2022-07-21T11:01:01;35.20;45.40
38380;DHT22;38377;47.418;18.882;2022-07-21T11:03:31;35.90;45.90
38380;DHT22;38377;47.418;18.882;2022-07-21T11:12:04;36.50;44.50
38380;DHT22;38377;47.418;18.882;2022-07-21T11:14:50;36.50;44.80
38380;DHT22;38377;47.418;18.882;2022-07-21T11:17:30;36.50;44.60
38380;DHT22;38377;47.418;18.882;2022-07-21T11:19:57;37.00;43.80
38380;DHT22;38377;47.418;18.882;2022-07-21T11:22:27;37.10;44.00
38380;DHT22;38377;47.418;18.882;2022-07-21T11:24:59;36.90;42.30
38380;DHT22;38377;47.418;18.882;2022-07-21T11:27:27;36.90;41.50
38380;DHT22;38377;47.418;18.882;2022-07-21T11:29:58;37.00;41.90
38380;DHT22;38377;47.418;18.882;2022-07-21T11:32:25;37.20;41.80
38380;DHT22;38377;47.418;18.882;2022-07-21T11:34:52;37.30;40.80
38380;DHT22;38377;47.418;18.882;2022-07-21T11:37:26;37.30;41.20
38380;DHT22;38377;47.418;18.882;2022-07-21T11:39:53;37.20;40.80
38380;DHT22;38377;47.418;18.882;2022-07-21T11:42:18;36.60;40.70
38380;DHT22;38377;47.418;18.882;2022-07-21T11:44:45;36.90;41.50
38380;DHT22;38377;47.418;18.882;2022-07-21T11:47:15;37.00;40.70
38380;DHT22;38377;47.418;18.882;2022-07-21T11:49:42;37.00;41.10
38380;DHT22;38377;47.418;18.882;2022-07-21T11:52:13;36.90;39.70
38380;DHT22;38377;47.418;18.882;2022-07-21T11:54:48;36.90;40.10
38380;DHT22;38377;47.418;18.882;2022-07-21T11:57:16;36.70;40.10
38380;DHT22;38377;47.418;18.882;2022-07-21T11:59:43;36.80;39.60
38380;DHT22;38377;47.418;18.882;2022-07-21T12:02:11;36.90;40.10
38380;DHT22;38377;47.418;18.882;2022-07-21T12:04:44;36.80;40.90
38380;DHT22;38377;47.418;18.882;2022-07-21T12:07:24;37.20;39.30
38380;DHT22;38377;47.418;18.882;2022-07-21T12:09:56;37.00;39.50
38380;DHT22;38377;47.418;18.882;2022-07-21T12:17:41;36.00;39.40
38380;DHT22;38377;47.418;18.882;2022-07-21T12:20:08;36.10;40.60
38380;DHT22;38377;47.418;18.882;2022-07-21T12:22:42;36.70;40.10
38380;DHT22;38377;47.418;18.882;2022-07-21T12:25:10;37.00;38.70
38380;DHT22;38377;47.418;18.882;2022-07-21T12:27:41;37.30;40.00
38380;DHT22;38377;47.418;18.882;2022-07-21T12:30:09;37.40;39.40
38380;DHT22;38377;47.418;18.882;2022-07-21T12:32:44;37.30;39.60
38380;DHT22;38377;47.418;18.882;2022-07-21T12:35:18;37.40;38.90
38380;DHT22;38377;47.418;18.882;2022-07-21T12:38:11;37.10;38.50
38380;DHT22;38377;47.418;18.882;2022-07-21T12:40:40;37.10;39.50
38380;DHT22;38377;47.418;18.882;2022-07-21T12:43:14;37.00;38.70
38380;DHT22;38377;47.418;18.882;2022-07-21T12:45:49;36.90;39.00
38380;DHT22;38377;47.418;18.882;2022-07-21T12:51:08;37.30;38.80
38380;DHT22;38377;47.418;18.882;2022-07-21T12:53:57;37.10;40.40
38380;DHT22;38377;47.418;18.882;2022-07-21T12:56:25;37.10;39.40
38380;DHT22;38377;47.418;18.882;2022-07-21T12:58:52;36.90;38.70
38380;DHT22;38377;47.418;18.882;2022-07-21T13:01:19;37.10;39.60
38380;DHT22;38377;47.418;18.882;2022-07-21T13:03:46;37.50;38.10
38380;DHT22;38377;47.418;18.882;2022-07-21T13:06:12;37.40;38.50
38380;DHT22;38377;47.418;18.882;2022-07-21T13:08:44;37.40;38.80
38380;DHT22;38377;47.418;18.882;2022-07-21T13:11:18;37.30;37.90
38380;DHT22;38377;47.418;18.882;2022-07-21T13:13:48;37.20;38.60
38380;DHT22;38377;47.418;18.882;2022-07-21T13:16:14;37.50;38.20
38380;DHT22;38377;47.418;18.882;2022-07-21T13:18:40;37.50;37.60
38380;DHT22;38377;47.418;18.882;2022-07-21T13:21:06;37.30;38.10
38380;DHT22;38377;47.418;18.882;2022-07-21T13:23:32;37.50;38.10
38380;DHT22;38377;47.418;18.882;2022-07-21T13:25:58;37.70;38.30
38380;DHT22;38377;47.418;18.882;2022-07-21T13:28:24;37.70;38.40
38380;DHT22;38377;47.418;18.882;2022-07-21T13:30:50;37.80;38.90
38380;DHT22;38377;47.418;18.882;2022-07-21T13:33:16;37.60;38.00
38380;DHT22;38377;47.418;18.882;2022-07-21T13:35:42;37.30;38.30
38380;DHT22;38377;47.418;18.882;2022-07-21T13:38:09;37.50;38.10
38380;DHT22;38377;47.418;18.882;2022-07-21T13:40:35;37.50;38.00
38380;DHT22;38377;47.418;18.882;2022-07-21T13:43:01;37.70;39.00
38380;DHT22;38377;47.418;18.882;2022-07-21T13:45:27;37.40;38.00
38380;DHT22;38377;47.418;18.882;2022-07-21T13:47:53;37.50;39.10
38380;DHT22;38377;47.418;18.882;2022-07-21T13:50:19;37.50;37.80
38380;DHT22;38377;47.418;18.882;2022-07-21T13:52:44;37.60;38.40
38380;DHT22;38377;47.418;18.882;2022-07-21T13:55:10;37.60;38.10
38380;DHT22;38377;47.418;18.882;2022-07-21T13:57:36;37.30;38.00
38380;DHT22;38377;47.418;18.882;2022-07-21T14:00:07;37.50;38.00
38380;DHT22;38377;47.418;18.882;2022-07-21T14:02:34;37.40;37.70
38380;DHT22;38377;47.418;18.882;2022-07-21T14:05:00;37.40;38.50
38380;DHT22;38377;47.418;18.882;2022-07-21T14:07:26;37.30;38.50
38380;DHT22;38377;47.418;18.882;2022-07-21T14:09:52;37.30;38.50
38380;DHT22;38377;47.418;18.882;2022-07-21T14:12:24;37.40;38.50
38380;DHT22;38377;47.418;18.882;2022-07-21T14:14:50;37.50;37.40
38380;DHT22;38377;47.418;18.882;2022-07-21T14:17:16;37.40;38.40
38380;DHT22;38377;47.418;18.882;2022-07-21T14:19:43;37.40;38.20
38380;DHT22;38377;47.418;18.882;2022-07-21T14:22:10;37.10;38.20
38380;DHT22;38377;47.418;18.882;2022-07-21T14:24:36;37.20;37.40
38380;DHT22;38377;47.418;18.882;2022-07-21T14:27:21;37.10;37.90
38380;DHT22;38377;47.418;18.882;2022-07-21T14:29:46;37.10;37.60
38380;DHT22;38377;47.418;18.882;2022-07-21T14:32:12;36.20;38.10
38380;DHT22;38377;47.418;18.882;2022-07-21T14:34:38;36.20;38.50
38380;DHT22;38377;47.418;18.882;2022-07-21T14:37:04;36.50;38.30
38380;DHT22;38377;47.418;18.882;2022-07-21T14:39:31;36.50;37.40
38380;DHT22;38377;47.418;18.882;2022-07-21T14:41:56;36.40;38.70
38380;DHT22;38377;47.418;18.882;2022-07-21T14:44:22;36.60;38.90
38380;DHT22;38377;47.418;18.882;2022-07-21T14:46:48;36.70;38.70
38380;DHT22;38377;47.418;18.882;2022-07-21T14:49:13;36.90;40.50
38380;DHT22;38377;47.418;18.882;2022-07-21T14:51:39;37.00;38.50
38380;DHT22;38377;47.418;18.882;2022-07-21T14:54:05;36.90;38.10
38380;DHT22;38377;47.418;18.882;2022-07-21T14:56:30;36.80;37.60
38380;DHT22;38377;47.418;18.882;2022-07-21T14:58:56;36.80;37.90
38380;DHT22;38377;47.418;18.882;2022-07-21T15:01:24;36.60;37.90
38380;DHT22;38377;47.418;18.882;2022-07-21T15:03:50;36.60;38.90
38380;DHT22;38377;47.418;18.882;2022-07-21T15:06:16;36.50;38.50
38380;DHT22;38377;47.418;18.882;2022-07-21T15:08:42;36.60;38.90
38380;DHT22;38377;47.418;18.882;2022-07-21T15:11:07;36.60;38.60
38380;DHT22;38377;47.418;18.882;2022-07-21T15:13:33;36.60;38.30
38380;DHT22;38377;47.418;18.882;2022-07-21T15:15:59;36.50;38.30
38380;DHT22;38377;47.418;18.882;2022-07-21T15:18:24;36.40;38.80
38380;DHT22;38377;47.418;18.882;2022-07-21T15:20:50;36.30;38.60
38380;DHT22;38377;47.418;18.882;2022-07-21T15:23:16;36.30;38.90
38380;DHT22;38377;47.418;18.882;2022-07-21T15:25:42;36.30;38.80
38380;DHT22;38377;47.418;18.882;2022-07-21T15:28:07;36.30;38.40
38380;DHT22;38377;47.418;18.882;2022-07-21T15:30:33;36.20;39.00
38380;DHT22;38377;47.418;18.882;2022-07-21T15:32:59;36.10;38.70
38380;DHT22;38377;47.418;18.882;2022-07-21T15:35:25;36.10;39.90
38380;DHT22;38377;47.418;18.882;2022-07-21T15:37:51;36.00;38.10
38380;DHT22;38377;47.418;18.882;2022-07-21T15:40:17;36.00;39.00
38380;DHT22;38377;47.418;18.882;2022-07-21T15:42:42;36.00;38.10
38380;DHT22;38377;47.418;18.882;2022-07-21T15:45:10;35.80;38.50
38380;DHT22;38377;47.418;18.882;2022-07-21T15:47:36;35.80;38.70
38380;DHT22;38377;47.418;18.882;2022-07-21T15:50:02;35.80;39.30
38380;DHT22;38377;47.418;18.882;2022-07-21T15:52:28;35.90;40.20
38380;DHT22;38377;47.418;18.882;2022-07-21T15:54:54;35.60;38.80
38380;DHT22;38377;47.418;18.882;2022-07-21T15:57:20;35.50;38.70
38380;DHT22;38377;47.418;18.882;2022-07-21T15:59:46;35.50;38.90
38380;DHT22;38377;47.418;18.882;2022-07-21T16:02:14;35.60;39.60
38380;DHT22;38377;47.418;18.882;2022-07-21T16:04:40;35.60;41.30